sensor_id;sensor_type;location;lat;lon;timestamp;pressure;altitude;pressure_sealevel;temperature;humidity
50652;BME280;61429;52.086;5.240;2022-08-19T00:01:22;101258.0;;;21.04;75.56
50652;BME280;61429;52.086;5.240;2022-08-19T00:02:59;101255.0;;;21.15;74.95
50652;BME280;61429;52.086;5.240;2022-08-19T00:04:36;101253.0;;;21.27;74.56
50652;BME280;61429;52.086;5.240;2022-08-19T00:07:49;101248.0;;;21.19;74.94
50652;BME280;61429;52.086;5.240;2022-08-19T00:09:27;101248.0;;;21.06;75.3
50652;BME280;61429;52.086;5.240;2022-08-19T00:11:04;101249.0;;;21.0;75.55
50652;BME280;61429;52.086;5.240;2022-08-19T00:12:41;101255.0;;;20.92;76.24
50652;BME280;61429;52.086;5.240;2022-08-19T00:15:55;101256.0;;;20.9;76.38
50652;BME280;61429;52.086;5.240;2022-08-19T00:17:31;101261.0;;;20.84;76.45
50652;BME280;61429;52.086;5.240;2022-08-19T00:19:08;101261.0;;;20.93;76.13
50652;BME280;61429;52.086;5.240;2022-08-19T00:22:21;101261.0;;;20.83;75.74
50652;BME280;61429;52.086;5.240;2022-08-19T00:23:58;101263.0;;;20.67;76.77
50652;BME280;61429;52.086;5.240;2022-08-19T00:25:36;101264.0;;;20.64;77.05
50652;BME280;61429;52.086;5.240;2022-08-19T00:27:12;101261.0;;;20.76;76.72
50652;BME280;61429;52.086;5.240;2022-08-19T00:30:27;101261.0;;;20.72;76.75
50652;BME280;61429;52.086;5.240;2022-08-19T00:32:05;101255.0;;;20.64;77.22
50652;BME280;61429;52.086;5.240;2022-08-19T00:33:41;101258.0;;;20.61;77.56
50652;BME280;61429;52.086;5.240;2022-08-19T00:36:55;101257.0;;;20.68;77.31
50652;BME280;61429;52.086;5.240;2022-08-19T00:38:32;101255.0;;;20.64;77.34
50652;BME280;61429;52.086;5.240;2022-08-19T00:40:11;101255.0;;;20.52;77.66
50652;BME280;61429;52.086;5.240;2022-08-19T00:41:50;101251.0;;;20.54;77.97
50652;BME280;61429;52.086;5.240;2022-08-19T00:45:09;101251.0;;;20.54;77.83
50652;BME280;61429;52.086;5.240;2022-08-19T00:46:49;101249.0;;;20.52;77.92
50652;BME280;61429;52.086;5.240;2022-08-19T00:48:26;101248.0;;;20.57;77.66
50652;BME280;61429;52.086;5.240;2022-08-19T00:51:42;101252.0;;;20.51;77.81
50652;BME280;61429;52.086;5.240;2022-08-19T00:53:24;101257.0;;;20.52;78.11
50652;BME280;61429;52.086;5.240;2022-08-19T00:55:06;101259.0;;;20.54;78.12
50652;BME280;61429;52.086;5.240;2022-08-19T00:56:44;101258.0;;;20.56;77.83
50652;BME280;61429;52.086;5.240;2022-08-19T01:00:09;101259.0;;;20.49;78.3
50652;BME280;61429;52.086;5.240;2022-08-19T01:01:46;101257.0;;;20.54;77.7
50652;BME280;61429;52.086;5.240;2022-08-19T01:03:23;101256.0;;;20.47;78.3
50652;BME280;61429;52.086;5.240;2022-08-19T01:05:03;101257.0;;;20.52;78.0
50652;BME280;61429;52.086;5.240;2022-08-19T01:08:18;101258.0;;;20.49;77.92
50652;BME280;61429;52.086;5.240;2022-08-19T01:09:55;101258.0;;;20.43;78.16
50652;BME280;61429;52.086;5.240;2022-08-19T01:11:35;101255.0;;;20.39;78.3
50652;BME280;61429;52.086;5.240;2022-08-19T01:13:21;101253.0;;;20.53;77.47
50652;BME280;61429;52.086;5.240;2022-08-19T01:16:37;101249.0;;;20.41;77.13
50652;BME280;61429;52.086;5.240;2022-08-19T01:18:16;101250.0;;;20.36;76.56
50652;BME280;61429;52.086;5.240;2022-08-19T01:19:54;101249.0;;;20.34;76.64
50652;BME280;61429;52.086;5.240;2022-08-19T01:23:20;101248.0;;;20.25;76.81
50652;BME280;61429;52.086;5.240;2022-08-19T01:24:56;101246.0;;;20.27;76.88
50652;BME280;61429;52.086;5.240;2022-08-19T01:26:38;101242.0;;;20.21;77.22
50652;BME280;61429;52.086;5.240;2022-08-19T01:28:18;101244.0;;;20.23;77.39
50652;BME280;61429;52.086;5.240;2022-08-19T01:29:56;101246.0;;;20.25;77.37
50652;BME280;61429;52.086;5.240;2022-08-19T01:33:07;101255.0;;;20.27;77.11
50652;BME280;61429;52.086;5.240;2022-08-19T01:34:47;101256.0;;;20.11;77.66
50652;BME280;61429;52.086;5.240;2022-08-19T01:36:26;101257.0;;;20.18;77.08
50652;BME280;61429;52.086;5.240;2022-08-19T01:39:46;101262.0;;;20.25;76.58
50652;BME280;61429;52.086;5.240;2022-08-19T01:41:23;101267.0;;;20.31;76.12
50652;BME280;61429;52.086;5.240;2022-08-19T01:43:00;101275.0;;;20.16;76.52
50652;BME280;61429;52.086;5.240;2022-08-19T01:44:38;101277.0;;;20.12;76.97
50652;BME280;61429;52.086;5.240;2022-08-19T01:47:52;101270.0;;;20.06;77.02
50652;BME280;61429;52.086;5.240;2022-08-19T01:49:29;101268.0;;;20.02;77.58
50652;BME280;61429;52.086;5.240;2022-08-19T01:51:06;101267.0;;;20.04;77.39
50652;BME280;61429;52.086;5.240;2022-08-19T01:54:23;101263.0;;;20.05;77.19
50652;BME280;61429;52.086;5.240;2022-08-19T01:56:01;101261.0;;;20.02;77.39
50652;BME280;61429;52.086;5.240;2022-08-19T01:57:40;101267.0;;;20.0;77.3
50652;BME280;61429;52.086;5.240;2022-08-19T01:59:21;101267.0;;;20.06;77.3
50652;BME280;61429;52.086;5.240;2022-08-19T02:02:36;101265.0;;;20.03;77.48
50652;BME280;61429;52.086;5.240;2022-08-19T02:04:12;101268.0;;;20.03;77.52
50652;BME280;61429;52.086;5.240;2022-08-19T02:05:55;101270.0;;;19.93;77.69
50652;BME280;61429;52.086;5.240;2022-08-19T02:09:09;101263.0;;;19.88;77.8
50652;BME280;61429;52.086;5.240;2022-08-19T02:10:46;101268.0;;;19.89;78.11
50652;BME280;61429;52.086;5.240;2022-08-19T02:12:22;101269.0;;;19.93;78.22
50652;BME280;61429;52.086;5.240;2022-08-19T02:13:59;101271.0;;;19.91;78.52
50652;BME280;61429;52.086;5.240;2022-08-19T02:17:13;101269.0;;;19.84;79.11
50652;BME280;61429;52.086;5.240;2022-08-19T02:18:50;101265.0;;;19.78;79.58
50652;BME280;61429;52.086;5.240;2022-08-19T02:20:27;101268.0;;;19.8;79.69
50652;BME280;61429;52.086;5.240;2022-08-19T02:23:40;101263.0;;;19.79;79.52
50652;BME280;61429;52.086;5.240;2022-08-19T02:25:16;101258.0;;;19.77;79.83
50652;BME280;61429;52.086;5.240;2022-08-19T02:26:53;101263.0;;;19.8;79.83
50652;BME280;61429;52.086;5.240;2022-08-19T02:28:29;101264.0;;;19.84;79.2
50652;BME280;61429;52.086;5.240;2022-08-19T02:31:47;101268.0;;;19.79;79.3
50652;BME280;61429;52.086;5.240;2022-08-19T02:33:23;101266.0;;;19.75;79.97
50652;BME280;61429;52.086;5.240;2022-08-19T02:35:00;101268.0;;;19.77;79.83
50652;BME280;61429;52.086;5.240;2022-08-19T02:38:29;101270.0;;;19.8;79.83
50652;BME280;61429;52.086;5.240;2022-08-19T02:40:06;101268.0;;;19.71;80.02
50652;BME280;61429;52.086;5.240;2022-08-19T02:41:44;101275.0;;;19.75;80.03
50652;BME280;61429;52.086;5.240;2022-08-19T02:43:21;101276.0;;;19.73;80.28
50652;BME280;61429;52.086;5.240;2022-08-19T02:46:34;101280.0;;;19.75;80.33
50652;BME280;61429;52.086;5.240;2022-08-19T02:48:11;101278.0;;;19.72;80.53
50652;BME280;61429;52.086;5.240;2022-08-19T02:49:49;101275.0;;;19.72;80.44
50652;BME280;61429;52.086;5.240;2022-08-19T02:53:08;101273.0;;;19.77;80.36
50652;BME280;61429;52.086;5.240;2022-08-19T02:54:46;101266.0;;;19.75;80.12
50652;BME280;61429;52.086;5.240;2022-08-19T02:56:23;101264.0;;;19.73;80.11
50652;BME280;61429;52.086;5.240;2022-08-19T02:58:00;101264.0;;;19.64;79.55
50652;BME280;61429;52.086;5.240;2022-08-19T03:01:20;101259.0;;;19.36;80.23
50652;BME280;61429;52.086;5.240;2022-08-19T03:02:57;101258.0;;;19.3;80.05
50652;BME280;61429;52.086;5.240;2022-08-19T03:04:33;101257.0;;;19.52;78.66
50652;BME280;61429;52.086;5.240;2022-08-19T03:06:13;101262.0;;;19.59;78.41
50652;BME280;61429;52.086;5.240;2022-08-19T03:09:27;101264.0;;;19.61;78.12
50652;BME280;61429;52.086;5.240;2022-08-19T03:11:03;101260.0;;;19.59;77.95
50652;BME280;61429;52.086;5.240;2022-08-19T03:12:40;101259.0;;;19.59;77.77
50652;BME280;61429;52.086;5.240;2022-08-19T03:15:54;101253.0;;;19.47;78.06
50652;BME280;61429;52.086;5.240;2022-08-19T03:19:07;101252.0;;;19.52;77.56
50652;BME280;61429;52.086;5.240;2022-08-19T03:22:21;101252.0;;;19.72;76.99
50652;BME280;61429;52.086;5.240;2022-08-19T03:24:00;101248.0;;;19.59;77.47
50652;BME280;61429;52.086;5.240;2022-08-19T03:25:47;101249.0;;;19.59;77.05
50652;BME280;61429;52.086;5.240;2022-08-19T03:27:24;101250.0;;;19.43;77.25
50652;BME280;61429;52.086;5.240;2022-08-19T03:30:42;101255.0;;;19.5;77.22
50652;BME280;61429;52.086;5.240;2022-08-19T03:32:19;101258.0;;;19.39;77.72
50652;BME280;61429;52.086;5.240;2022-08-19T03:33:55;101253.0;;;19.29;78.19
50652;BME280;61429;52.086;5.240;2022-08-19T03:35:31;101249.0;;;19.41;77.45
50652;BME280;61429;52.086;5.240;2022-08-19T03:38:50;101249.0;;;19.27;77.23
50652;BME280;61429;52.086;5.240;2022-08-19T03:40:30;101252.0;;;19.52;76.36
50652;BME280;61429;52.086;5.240;2022-08-19T03:42:07;101255.0;;;19.36;76.58
50652;BME280;61429;52.086;5.240;2022-08-19T03:45:23;101251.0;;;19.47;76.11
50652;BME280;61429;52.086;5.240;2022-08-19T03:47:00;101255.0;;;19.41;76.27
50652;BME280;61429;52.086;5.240;2022-08-19T03:48:37;101255.0;;;19.36;76.47
50652;BME280;61429;52.086;5.240;2022-08-19T03:50:15;101255.0;;;19.18;77.12
50652;BME280;61429;52.086;5.240;2022-08-19T03:53:32;101255.0;;;19.32;77.22
50652;BME280;61429;52.086;5.240;2022-08-19T03:55:08;101252.0;;;19.12;77.41
50652;BME280;61429;52.086;5.240;2022-08-19T03:56:47;101250.0;;;19.2;77.11
50652;BME280;61429;52.086;5.240;2022-08-19T04:00:05;101248.0;;;19.14;77.13
50652;BME280;61429;52.086;5.240;2022-08-19T04:01:42;101245.0;;;19.16;77.31
50652;BME280;61429;52.086;5.240;2022-08-19T04:03:19;101245.0;;;19.07;77.41
50652;BME280;61429;52.086;5.240;2022-08-19T04:04:55;101250.0;;;19.16;77.16
50652;BME280;61429;52.086;5.240;2022-08-19T04:08:11;101258.0;;;19.11;77.45
50652;BME280;61429;52.086;5.240;2022-08-19T04:09:47;101261.0;;;18.97;77.97
50652;BME280;61429;52.086;5.240;2022-08-19T04:11:26;101257.0;;;19.02;77.66
50652;BME280;61429;52.086;5.240;2022-08-19T04:14:41;101256.0;;;19.06;76.62
50652;BME280;61429;52.086;5.240;2022-08-19T04:16:18;101252.0;;;18.98;76.88
50652;BME280;61429;52.086;5.240;2022-08-19T04:17:56;101253.0;;;18.96;77.3
50652;BME280;61429;52.086;5.240;2022-08-19T04:19:33;101249.0;;;18.97;77.53
50652;BME280;61429;52.086;5.240;2022-08-19T04:22:53;101249.0;;;18.98;77.72
50652;BME280;61429;52.086;5.240;2022-08-19T04:24:29;101251.0;;;18.93;77.86
50652;BME280;61429;52.086;5.240;2022-08-19T04:26:06;101255.0;;;18.84;78.88
50652;BME280;61429;52.086;5.240;2022-08-19T04:29:25;101252.0;;;18.87;78.08
50652;BME280;61429;52.086;5.240;2022-08-19T04:31:01;101244.0;;;18.7;78.56
50652;BME280;61429;52.086;5.240;2022-08-19T04:32:39;101245.0;;;18.86;78.24
50652;BME280;61429;52.086;5.240;2022-08-19T04:34:18;101240.0;;;18.93;77.52
50652;BME280;61429;52.086;5.240;2022-08-19T04:37:34;101237.0;;;18.95;77.06
50652;BME280;61429;52.086;5.240;2022-08-19T04:39:12;101237.0;;;18.73;77.59
50652;BME280;61429;52.086;5.240;2022-08-19T04:43:48;101236.0;;;18.81;77.56
50652;BME280;61429;52.086;5.240;2022-08-19T04:47:00;101236.0;;;18.84;77.52
50652;BME280;61429;52.086;5.240;2022-08-19T04:50:15;101240.0;;;18.84;77.61
50652;BME280;61429;52.086;5.240;2022-08-19T04:51:54;101240.0;;;18.75;78.02
50652;BME280;61429;52.086;5.240;2022-08-19T04:53:32;101244.0;;;18.81;78.33
50652;BME280;61429;52.086;5.240;2022-08-19T04:55:11;101244.0;;;18.95;78.61
50652;BME280;61429;52.086;5.240;2022-08-19T04:58:28;101246.0;;;18.86;79.47
50652;BME280;61429;52.086;5.240;2022-08-19T05:00:05;101253.0;;;18.82;79.62
50652;BME280;61429;52.086;5.240;2022-08-19T05:01:42;101257.0;;;18.79;80.34
50652;BME280;61429;52.086;5.240;2022-08-19T05:03:20;101265.0;;;18.82;80.47
50652;BME280;61429;52.086;5.240;2022-08-19T05:06:35;101269.0;;;18.87;80.52
50652;BME280;61429;52.086;5.240;2022-08-19T05:08:14;101266.0;;;18.87;80.75
50652;BME280;61429;52.086;5.240;2022-08-19T05:09:50;101270.0;;;18.93;80.77
50652;BME280;61429;52.086;5.240;2022-08-19T05:13:10;101273.0;;;18.93;80.81
50652;BME280;61429;52.086;5.240;2022-08-19T05:14:47;101274.0;;;18.96;80.81
50652;BME280;61429;52.086;5.240;2022-08-19T05:16:27;101282.0;;;19.02;80.47
50652;BME280;61429;52.086;5.240;2022-08-19T05:24:30;101280.0;;;19.2;79.58
50652;BME280;61429;52.086;5.240;2022-08-19T05:27:42;101281.0;;;19.22;79.86
50652;BME280;61429;52.086;5.240;2022-08-19T05:29:20;101278.0;;;19.22;79.91
50652;BME280;61429;52.086;5.240;2022-08-19T05:30:57;101282.0;;;19.14;80.62
50652;BME280;61429;52.086;5.240;2022-08-19T05:34:11;101282.0;;;19.31;80.0
50652;BME280;61429;52.086;5.240;2022-08-19T05:35:50;101278.0;;;19.29;80.27
50652;BME280;61429;52.086;5.240;2022-08-19T05:37:27;101278.0;;;19.27;80.47
50652;BME280;61429;52.086;5.240;2022-08-19T05:39:04;101278.0;;;19.3;80.39
50652;BME280;61429;52.086;5.240;2022-08-19T05:43:58;101273.0;;;19.45;80.13
50652;BME280;61429;52.086;5.240;2022-08-19T05:45:39;101268.0;;;19.47;80.2
50652;BME280;61429;52.086;5.240;2022-08-19T05:47:16;101271.0;;;19.46;80.27
50652;BME280;61429;52.086;5.240;2022-08-19T05:50:30;101269.0;;;19.55;80.31
50652;BME280;61429;52.086;5.240;2022-08-19T05:52:08;101275.0;;;19.66;79.83
50652;BME280;61429;52.086;5.240;2022-08-19T05:53:47;101274.0;;;19.68;79.84
50652;BME280;61429;52.086;5.240;2022-08-19T05:57:01;101273.0;;;19.7;79.98
50652;BME280;61429;52.086;5.240;2022-08-19T05:58:37;101270.0;;;19.71;80.05
50652;BME280;61429;52.086;5.240;2022-08-19T06:00:15;101265.0;;;19.71;80.36
50652;BME280;61429;52.086;5.240;2022-08-19T06:01:54;101265.0;;;19.77;80.22
50652;BME280;61429;52.086;5.240;2022-08-19T06:05:10;101270.0;;;19.77;80.41
50652;BME280;61429;52.086;5.240;2022-08-19T06:06:47;101267.0;;;19.86;80.31
50652;BME280;61429;52.086;5.240;2022-08-19T06:08:24;101270.0;;;19.98;79.97
50652;BME280;61429;52.086;5.240;2022-08-19T06:11:42;101273.0;;;20.0;80.08
50652;BME280;61429;52.086;5.240;2022-08-19T06:13:20;101277.0;;;20.09;79.99
50652;BME280;61429;52.086;5.240;2022-08-19T06:14:59;101273.0;;;20.11;79.95
50652;BME280;61429;52.086;5.240;2022-08-19T06:16:36;101275.0;;;20.27;79.37
50652;BME280;61429;52.086;5.240;2022-08-19T06:19:52;101273.0;;;20.37;79.05
50652;BME280;61429;52.086;5.240;2022-08-19T06:21:29;101277.0;;;20.39;79.02
50652;BME280;61429;52.086;5.240;2022-08-19T06:23:07;101278.0;;;20.46;78.91
50652;BME280;61429;52.086;5.240;2022-08-19T06:26:20;101275.0;;;20.53;78.86
50652;BME280;61429;52.086;5.240;2022-08-19T06:27:57;101278.0;;;20.59;78.5
50652;BME280;61429;52.086;5.240;2022-08-19T06:29:35;101276.0;;;20.55;78.83
50652;BME280;61429;52.086;5.240;2022-08-19T06:31:14;101269.0;;;20.62;79.33
50652;BME280;61429;52.086;5.240;2022-08-19T06:34:32;101272.0;;;20.58;79.49
50652;BME280;61429;52.086;5.240;2022-08-19T06:36:16;101273.0;;;20.46;80.42
50652;BME280;61429;52.086;5.240;2022-08-19T06:37:53;101276.0;;;20.47;80.45
50652;BME280;61429;52.086;5.240;2022-08-19T06:41:14;101275.0;;;20.54;80.14
50652;BME280;61429;52.086;5.240;2022-08-19T06:42:50;101278.0;;;20.48;80.61
50652;BME280;61429;52.086;5.240;2022-08-19T06:44:28;101278.0;;;20.62;79.88
50652;BME280;61429;52.086;5.240;2022-08-19T06:46:12;101278.0;;;20.64;79.77
50652;BME280;61429;52.086;5.240;2022-08-19T06:49:31;101283.0;;;20.65;79.58
50652;BME280;61429;52.086;5.240;2022-08-19T06:51:08;101280.0;;;20.67;79.87
50652;BME280;61429;52.086;5.240;2022-08-19T06:52:44;101283.0;;;20.74;79.14
50652;BME280;61429;52.086;5.240;2022-08-19T06:54:20;101277.0;;;20.69;79.31
50652;BME280;61429;52.086;5.240;2022-08-19T06:57:37;101274.0;;;20.8;78.92
50652;BME280;61429;52.086;5.240;2022-08-19T06:59:15;101275.0;;;20.82;78.47
50652;BME280;61429;52.086;5.240;2022-08-19T07:01:02;101276.0;;;21.02;77.5
50652;BME280;61429;52.086;5.240;2022-08-19T07:02:40;101275.0;;;21.09;77.47
50652;BME280;61429;52.086;5.240;2022-08-19T07:05:56;101278.0;;;21.09;77.83
50652;BME280;61429;52.086;5.240;2022-08-19T07:07:35;101278.0;;;21.12;77.55
50652;BME280;61429;52.086;5.240;2022-08-19T07:09:14;101284.0;;;21.16;76.95
50652;BME280;61429;52.086;5.240;2022-08-19T07:12:30;101282.0;;;21.1;77.52
50652;BME280;61429;52.086;5.240;2022-08-19T07:14:08;101281.0;;;21.19;77.24
50652;BME280;61429;52.086;5.240;2022-08-19T07:15:46;101286.0;;;21.25;76.58
50652;BME280;61429;52.086;5.240;2022-08-19T07:17:22;101285.0;;;21.37;75.94
50652;BME280;61429;52.086;5.240;2022-08-19T07:20:37;101287.0;;;21.37;76.11
50652;BME280;61429;52.086;5.240;2022-08-19T07:22:14;101290.0;;;21.28;76.37
50652;BME280;61429;52.086;5.240;2022-08-19T07:23:51;101294.0;;;21.41;76.0
50652;BME280;61429;52.086;5.240;2022-08-19T07:27:05;101299.0;;;21.41;76.38
50652;BME280;61429;52.086;5.240;2022-08-19T07:28:43;101295.0;;;21.45;75.28
50652;BME280;61429;52.086;5.240;2022-08-19T07:30:23;101297.0;;;21.45;75.14
50652;BME280;61429;52.086;5.240;2022-08-19T07:32:00;101301.0;;;21.49;74.77
50652;BME280;61429;52.086;5.240;2022-08-19T07:35:14;101293.0;;;21.57;74.66
50652;BME280;61429;52.086;5.240;2022-08-19T07:36:51;101296.0;;;21.59;74.36
50652;BME280;61429;52.086;5.240;2022-08-19T07:38:28;101293.0;;;21.54;74.41
50652;BME280;61429;52.086;5.240;2022-08-19T07:41:43;101283.0;;;21.65;74.19
50652;BME280;61429;52.086;5.240;2022-08-19T07:43:25;101286.0;;;21.62;74.11
50652;BME280;61429;52.086;5.240;2022-08-19T07:45:06;101287.0;;;21.71;73.91
50652;BME280;61429;52.086;5.240;2022-08-19T07:46:46;101293.0;;;21.7;73.87
50652;BME280;61429;52.086;5.240;2022-08-19T07:50:08;101297.0;;;21.7;73.24
50652;BME280;61429;52.086;5.240;2022-08-19T07:51:49;101299.0;;;21.77;73.06
50652;BME280;61429;52.086;5.240;2022-08-19T07:53:25;101305.0;;;21.75;73.03
50652;BME280;61429;52.086;5.240;2022-08-19T07:55:05;101305.0;;;21.81;72.83
50652;BME280;61429;52.086;5.240;2022-08-19T07:58:21;101309.0;;;21.89;72.58
50652;BME280;61429;52.086;5.240;2022-08-19T07:59:58;101308.0;;;21.96;72.47
50652;BME280;61429;52.086;5.240;2022-08-19T08:01:35;101308.0;;;22.02;72.09
50652;BME280;61429;52.086;5.240;2022-08-19T08:03:13;101307.0;;;22.05;71.31
50652;BME280;61429;52.086;5.240;2022-08-19T08:09:31;101311.0;;;22.12;71.08
50652;BME280;61429;52.086;5.240;2022-08-19T08:11:09;101314.0;;;22.31;70.69
50652;BME280;61429;52.086;5.240;2022-08-19T08:12:46;101316.0;;;22.38;70.41
50652;BME280;61429;52.086;5.240;2022-08-19T08:14:25;101322.0;;;22.37;70.53
50652;BME280;61429;52.086;5.240;2022-08-19T08:16:03;101325.0;;;22.5;69.97
50652;BME280;61429;52.086;5.240;2022-08-19T08:19:19;101330.0;;;22.5;69.63
50652;BME280;61429;52.086;5.240;2022-08-19T08:20:58;101333.0;;;22.32;70.27
50652;BME280;61429;52.086;5.240;2022-08-19T08:23:38;101332.0;;;22.43;69.83
50652;BME280;61429;52.086;5.240;2022-08-19T08:25:16;101335.0;;;22.29;70.52
50652;BME280;61429;52.086;5.240;2022-08-19T08:26:58;101330.0;;;22.52;69.88
50652;BME280;61429;52.086;5.240;2022-08-19T08:28:35;101330.0;;;22.59;69.12
50652;BME280;61429;52.086;5.240;2022-08-19T08:31:53;101331.0;;;22.64;69.34
50652;BME280;61429;52.086;5.240;2022-08-19T08:33:30;101335.0;;;22.37;70.22
50652;BME280;61429;52.086;5.240;2022-08-19T08:35:09;101339.0;;;22.62;69.72
50652;BME280;61429;52.086;5.240;2022-08-19T08:36:48;101339.0;;;22.66;69.8
50652;BME280;61429;52.086;5.240;2022-08-19T08:40:03;101338.0;;;22.6;69.87
50652;BME280;61429;52.086;5.240;2022-08-19T08:41:49;101336.0;;;22.79;69.16
50652;BME280;61429;52.086;5.240;2022-08-19T08:43:35;101334.0;;;22.87;68.92
50652;BME280;61429;52.086;5.240;2022-08-19T08:45:17;101327.0;;;23.02;68.62
50652;BME280;61429;52.086;5.240;2022-08-19T08:48:41;101328.0;;;22.91;68.41
50652;BME280;61429;52.086;5.240;2022-08-19T08:50:25;101332.0;;;22.96;67.91
50652;BME280;61429;52.086;5.240;2022-08-19T08:52:10;101330.0;;;23.01;67.53
50652;BME280;61429;52.086;5.240;2022-08-19T08:53:49;101333.0;;;22.95;68.02
50652;BME280;61429;52.086;5.240;2022-08-19T08:57:10;101330.0;;;23.05;67.97
50652;BME280;61429;52.086;5.240;2022-08-19T08:58:59;101332.0;;;23.12;67.91
50652;BME280;61429;52.086;5.240;2022-08-19T09:00:42;101331.0;;;23.2;66.81
50652;BME280;61429;52.086;5.240;2022-08-19T09:02:20;101332.0;;;23.19;66.47
50652;BME280;61429;52.086;5.240;2022-08-19T09:03:56;101330.0;;;23.37;66.05
50652;BME280;61429;52.086;5.240;2022-08-19T09:07:37;101328.0;;;23.42;66.25
50652;BME280;61429;52.086;5.240;2022-08-19T09:09:35;101332.0;;;23.43;65.49
50652;BME280;61429;52.086;5.240;2022-08-19T09:11:19;101332.0;;;23.44;64.77
50652;BME280;61429;52.086;5.240;2022-08-19T09:13:14;101332.0;;;23.41;64.75
50652;BME280;61429;52.086;5.240;2022-08-19T09:15:04;101335.0;;;23.6;64.27
50652;BME280;61429;52.086;5.240;2022-08-19T09:16:42;101341.0;;;23.74;64.1
50652;BME280;61429;52.086;5.240;2022-08-19T09:19:58;101342.0;;;23.81;64.27
50652;BME280;61429;52.086;5.240;2022-08-19T09:21:35;101342.0;;;23.83;64.2
50652;BME280;61429;52.086;5.240;2022-08-19T09:23:11;101345.0;;;24.02;64.0
50652;BME280;61429;52.086;5.240;2022-08-19T09:24:48;101344.0;;;24.06;62.83
50652;BME280;61429;52.086;5.240;2022-08-19T09:28:03;101338.0;;;24.06;63.16
50652;BME280;61429;52.086;5.240;2022-08-19T09:29:39;101339.0;;;24.17;63.06
50652;BME280;61429;52.086;5.240;2022-08-19T09:31:19;101336.0;;;24.34;62.48
50652;BME280;61429;52.086;5.240;2022-08-19T09:34:37;101341.0;;;24.4;62.46
50652;BME280;61429;52.086;5.240;2022-08-19T09:36:15;101343.0;;;24.4;61.32
50652;BME280;61429;52.086;5.240;2022-08-19T09:37:54;101342.0;;;24.49;61.08
50652;BME280;61429;52.086;5.240;2022-08-19T09:39:31;101351.0;;;24.47;61.27
50652;BME280;61429;52.086;5.240;2022-08-19T09:42:48;101350.0;;;24.54;60.83
50652;BME280;61429;52.086;5.240;2022-08-19T09:44:24;101350.0;;;24.5;61.22
50652;BME280;61429;52.086;5.240;2022-08-19T09:46:01;101353.0;;;24.58;61.31
50652;BME280;61429;52.086;5.240;2022-08-19T09:49:15;101351.0;;;24.72;60.71
50652;BME280;61429;52.086;5.240;2022-08-19T09:50:52;101347.0;;;24.75;60.75
50652;BME280;61429;52.086;5.240;2022-08-19T09:52:28;101344.0;;;24.78;61.19
50652;BME280;61429;52.086;5.240;2022-08-19T09:54:04;101347.0;;;24.83;61.28
50652;BME280;61429;52.086;5.240;2022-08-19T09:57:18;101351.0;;;24.88;61.38
50652;BME280;61429;52.086;5.240;2022-08-19T09:58:54;101351.0;;;24.84;61.12
50652;BME280;61429;52.086;5.240;2022-08-19T10:00:32;101349.0;;;24.82;61.4
50652;BME280;61429;52.086;5.240;2022-08-19T10:03:47;101352.0;;;24.88;61.3
50652;BME280;61429;52.086;5.240;2022-08-19T10:05:58;101348.0;;;24.71;61.23
50652;BME280;61429;52.086;5.240;2022-08-19T10:07:35;101346.0;;;24.81;61.16
50652;BME280;61429;52.086;5.240;2022-08-19T10:09:13;101348.0;;;24.9;61.38
50652;BME280;61429;52.086;5.240;2022-08-19T10:10:51;101344.0;;;24.88;61.64
50652;BME280;61429;52.086;5.240;2022-08-19T10:14:06;101343.0;;;24.94;61.42
50652;BME280;61429;52.086;5.240;2022-08-19T10:15:43;101345.0;;;24.94;61.75
50652;BME280;61429;52.086;5.240;2022-08-19T10:17:20;101346.0;;;24.9;61.8
50652;BME280;61429;52.086;5.240;2022-08-19T10:20:35;101342.0;;;24.94;61.59
50652;BME280;61429;52.086;5.240;2022-08-19T10:22:14;101343.0;;;25.02;61.48
50652;BME280;61429;52.086;5.240;2022-08-19T10:23:53;101344.0;;;25.03;61.65
50652;BME280;61429;52.086;5.240;2022-08-19T10:25:32;101337.0;;;25.09;61.96
50652;BME280;61429;52.086;5.240;2022-08-19T10:28:47;101337.0;;;25.18;62.09
50652;BME280;61429;52.086;5.240;2022-08-19T10:30:23;101339.0;;;25.1;62.46
50652;BME280;61429;52.086;5.240;2022-08-19T10:32:01;101337.0;;;25.09;62.52
50652;BME280;61429;52.086;5.240;2022-08-19T10:35:15;101335.0;;;25.18;62.3
50652;BME280;61429;52.086;5.240;2022-08-19T10:36:52;101334.0;;;25.14;62.78
50652;BME280;61429;52.086;5.240;2022-08-19T10:38:29;101337.0;;;25.21;62.97
50652;BME280;61429;52.086;5.240;2022-08-19T10:40:08;101337.0;;;25.39;62.34
50652;BME280;61429;52.086;5.240;2022-08-19T10:43:21;101335.0;;;25.4;62.0
50652;BME280;61429;52.086;5.240;2022-08-19T10:44:57;101334.0;;;25.34;62.52
50652;BME280;61429;52.086;5.240;2022-08-19T10:46:37;101333.0;;;25.42;62.13
50652;BME280;61429;52.086;5.240;2022-08-19T10:52:47;101330.0;;;25.53;62.65
50652;BME280;61429;52.086;5.240;2022-08-19T10:58:27;101337.0;;;25.61;62.35
50652;BME280;61429;52.086;5.240;2022-08-19T11:00:04;101332.0;;;25.7;62.3
50652;BME280;61429;52.086;5.240;2022-08-19T11:01:41;101326.0;;;25.77;61.82
50652;BME280;61429;52.086;5.240;2022-08-19T11:03:19;101325.0;;;25.82;61.43
50652;BME280;61429;52.086;5.240;2022-08-19T11:06:32;101326.0;;;26.03;60.92
50652;BME280;61429;52.086;5.240;2022-08-19T11:08:11;101327.0;;;26.03;61.03
50652;BME280;61429;52.086;5.240;2022-08-19T11:09:47;101328.0;;;26.09;60.47
50652;BME280;61429;52.086;5.240;2022-08-19T11:13:00;101330.0;;;26.12;60.37
50652;BME280;61429;52.086;5.240;2022-08-19T11:14:36;101326.0;;;26.15;60.45
50652;BME280;61429;52.086;5.240;2022-08-19T11:16:15;101318.0;;;26.22;60.19
50652;BME280;61429;52.086;5.240;2022-08-19T11:17:54;101318.0;;;26.32;59.86
50652;BME280;61429;52.086;5.240;2022-08-19T11:21:12;101316.0;;;26.34;59.38
50652;BME280;61429;52.086;5.240;2022-08-19T11:22:50;101316.0;;;26.43;59.09
50652;BME280;61429;52.086;5.240;2022-08-19T11:24:28;101312.0;;;26.52;58.49
50652;BME280;61429;52.086;5.240;2022-08-19T11:27:42;101305.0;;;26.53;58.78
50652;BME280;61429;52.086;5.240;2022-08-19T11:29:20;101308.0;;;26.53;58.85